1858 Tropical Storm NOT_NAMED (1858224N27287)


IBTrACS version v04r00. Visit IBTrACS website for data access.
Please direct all questions to the IBTrACS Q and A forum

Storm track - Intensity - Wind Radii - Intensity Data - Source Data - All data

Summary Information

Storm ID 1858224N27287
Start Aug 11 12Z
Max Intensity 45 kt (Aug 18 00Z), 994 mb (Aug 20 12Z)
End Aug 20 12Z
ATCF IDs
Track status Best track data.

Storm track plot

Map of storm track

Intensity plots

Map of storm track

Radial wind information

No radial wind information for this storm


Position and Intensity Table

BASIN ISO_TIME_________ NATURE LAT LON MLC WIND MLC PRES
degrees north degrees east kts mb
NA 1858-08-11 12:00:00 TS 27.00 -73.00 30
NA 15:00:00 TS 27.36 -73.11 30
NA 18:00:00 TS 27.70 -73.20 30
NA 21:00:00 TS 28.01 -73.26 30
NA 1858-08-12 00:00:00 TS 28.30 -73.30 30
NA 03:00:00 TS 28.60 -73.35 30
NA 06:00:00 TS 28.90 -73.40 30
NA 09:00:00 TS 29.21 -73.44 30
NA 12:00:00 TS 29.50 -73.50 30
NA 15:00:00 TS 29.76 -73.60 30
NA 18:00:00 TS 30.00 -73.70 30
NA 21:00:00 TS 30.25 -73.76 30
NA 1858-08-13 00:00:00 TS 30.50 -73.80 30
NA 03:00:00 TS 30.75 -73.85 30
NA 06:00:00 TS 31.00 -73.90 30
NA 09:00:00 TS 31.23 -73.95 30
NA 12:00:00 TS 31.50 -74.00 30
NA 15:00:00 TS 31.90 -74.05 30
NA 18:00:00 TS 32.30 -74.10 30
NA 21:00:00 TS 32.56 -74.15 30
NA 1858-08-14 00:00:00 TS 32.80 -74.20 30
NA 03:00:00 TS 33.09 -74.26 30
NA 06:00:00 TS 33.40 -74.30 30
NA 09:00:00 TS 33.71 -74.30 32
NA 12:00:00 TS 34.00 -74.30 35
NA 15:00:00 TS 34.22 -74.34 35
NA 18:00:00 TS 34.40 -74.40 35
NA 21:00:00 TS 34.60 -74.45 35
NA 1858-08-15 00:00:00 TS 34.80 -74.50 35
NA 03:00:00 TS 35.01 -74.55 35
NA 06:00:00 TS 35.20 -74.60 35
NA 09:00:00 TS 35.35 -74.64 35
NA 12:00:00 TS 35.50 -74.70 35
NA 15:00:00 TS 35.69 -74.80 35
NA 18:00:00 TS 35.90 -74.90 35
NA 21:00:00 TS 36.10 -74.96 35
NA 1858-08-16 00:00:00 TS 36.30 -75.00 35
NA 03:00:00 TS 36.51 -75.05 35
NA 06:00:00 TS 36.70 -75.10 35
NA 09:00:00 TS 36.85 -75.14 35
NA 12:00:00 TS 37.00 -75.20 35
NA 15:00:00 TS 37.22 -75.36 35
NA 18:00:00 TS 37.40 -75.50 35
NA 21:00:00 TS 37.47 -75.60 35
NA 1858-08-17 00:00:00 TS 37.50 -75.50 35
NA 03:00:00 TS 37.55 -75.11 35
NA 06:00:00 TS 37.60 -74.50 35
NA 09:00:00 TS 37.65 -73.78 37
NA 12:00:00 TS 37.70 -73.00 40
NA 15:00:00 TS 37.75 -72.29 40
NA 18:00:00 TS 37.80 -71.60 40
NA 21:00:00 TS 37.85 -70.90 42
NA 1858-08-18 00:00:00 TS 37.90 -70.20 45
NA 03:00:00 TS 37.96 -69.49 45
NA 06:00:00 TS 38.00 -68.80 45
NA 09:00:00 TS 37.97 -68.18 45
NA 12:00:00 TS 38.00 -67.50 45
NA 15:00:00 TS 38.21 -66.63 45
NA 18:00:00 TS 38.50 -65.70 45
NA 21:00:00 TS 38.75 -64.84 45
NA 1858-08-19 00:00:00 TS 39.00 -64.00 45
NA 03:00:00 TS 39.26 -63.16 45
NA 06:00:00 TS 39.50 -62.30 45
NA 09:00:00 TS 39.64 -61.40 45
NA 12:00:00 TS 39.90 -60.50 45
NA 15:00:00 TS 40.48 -59.61 45
NA 18:00:00 TS 41.20 -58.70 45
NA 21:00:00 TS 41.85 -57.75 45
NA 1858-08-20 00:00:00 TS 42.50 -56.80 45
NA 03:00:00 TS 43.16 -55.89 45
NA 06:00:00 ET 43.80 -55.00 45
NA 09:00:00 ET 44.41 -54.11 45
NA 12:00:00 ET 45.00 -53.20 45 994

Source Information

Agency Information
USA
TOKYO
CMA
HKO
NEWDELHI
REUNION
BOM
NADI
WELLINGTON
DS824
TD9636
TD9635
NEUMANN
MLC

All available IBTrACS Data

SEASON BASIN SUBBASIN ISO_TIME_________ NATURE LAT LON DIST2LAND LANDFALL IFLAG USA SSHS MLC LAT MLC LON MLC CLASS MLC WIND MLC PRES STORM SPEED STORM DIR
Year degrees north degrees east km km 1 degrees north degrees east kts mb kts degrees
1858 NA NA 1858-08-11 12:00:00 TS 27.00 -73.00 542 541 _____________O -1 27.00 -73.00 TD 30 7 345
1858 NA NA 15:00:00 TS 27.36 -73.11 551 548 _____________P -1 27.36 -73.11 TD 30 7 346
1858 NA NA 18:00:00 TS 27.70 -73.20 558 558 _____________O -1 27.70 -73.20 TD 30 7 348
1858 NA NA 21:00:00 TS 28.01 -73.26 568 568 _____________P -1 28.01 -73.26 TD 30 6 352
1858 NA NA 1858-08-12 00:00:00 TS 28.30 -73.30 587 587 _____________O -1 28.30 -73.30 TD 30 6 353
1858 NA NA 03:00:00 TS 28.60 -73.35 600 600 _____________P -1 28.60 -73.35 TD 30 6 352
1858 NA NA 06:00:00 TS 28.90 -73.40 622 622 _____________O -1 28.90 -73.40 TD 30 6 352
1858 NA NA 09:00:00 TS 29.21 -73.44 645 644 _____________P -1 29.21 -73.44 TD 30 6 352
1858 NA NA 12:00:00 TS 29.50 -73.50 644 620 _____________O -1 29.50 -73.50 TD 30 6 346
1858 NA NA 15:00:00 TS 29.76 -73.60 610 586 _____________P -1 29.76 -73.60 TD 30 5 341
1858 NA NA 18:00:00 TS 30.00 -73.70 586 561 _____________O -1 30.00 -73.70 TD 30 5 344
1858 NA NA 21:00:00 TS 30.25 -73.76 561 532 _____________P -1 30.25 -73.76 TD 30 5 350
1858 NA NA 1858-08-13 00:00:00 TS 30.50 -73.80 532 512 _____________O -1 30.50 -73.80 TD 30 5 351
1858 NA NA 03:00:00 TS 30.75 -73.85 497 478 _____________P -1 30.75 -73.85 TD 30 5 350
1858 NA NA 06:00:00 TS 31.00 -73.90 478 459 _____________O -1 31.00 -73.90 TD 30 5 349
1858 NA NA 09:00:00 TS 31.23 -73.95 454 425 _____________P -1 31.23 -73.95 TD 30 5 350
1858 NA NA 12:00:00 TS 31.50 -74.00 425 388 _____________O -1 31.50 -74.00 TD 30 7 352
1858 NA NA 15:00:00 TS 31.90 -74.05 388 347 _____________P -1 31.90 -74.05 TD 30 8 354
1858 NA NA 18:00:00 TS 32.30 -74.10 347 322 _____________O -1 32.30 -74.10 TD 30 7 353
1858 NA NA 21:00:00 TS 32.56 -74.15 316 299 _____________P -1 32.56 -74.15 TD 30 5 350
1858 NA NA 1858-08-14 00:00:00 TS 32.80 -74.20 299 269 _____________O -1 32.80 -74.20 TD 30 5 350
1858 NA NA 03:00:00 TS 33.09 -74.26 269 248 _____________P -1 33.09 -74.26 TD 30 6 352
1858 NA NA 06:00:00 TS 33.40 -74.30 248 226 _____________O -1 33.40 -74.30 TD 30 6 356
1858 NA NA 09:00:00 TS 33.71 -74.30 226 208 _____________P -1 33.71 -74.30 TD 32 6 0
1858 NA NA 12:00:00 TS 34.00 -74.30 208 198 _____________O -1 34.00 -74.30 TS 35 5 355
1858 NA NA 15:00:00 TS 34.22 -74.34 198 178 _____________P -1 34.22 -74.34 TS 35 4 349
1858 NA NA 18:00:00 TS 34.40 -74.40 178 162 _____________O -1 34.40 -74.40 TS 35 4 347
1858 NA NA 21:00:00 TS 34.60 -74.45 155 140 _____________P -1 34.60 -74.45 TS 35 4 349
1858 NA NA 1858-08-15 00:00:00 TS 34.80 -74.50 140 126 _____________O -1 34.80 -74.50 TS 35 4 349
1858 NA NA 03:00:00 TS 35.01 -74.55 119 105 _____________P -1 35.01 -74.55 TS 35 4 349
1858 NA NA 06:00:00 TS 35.20 -74.60 105 98 _____________O -1 35.20 -74.60 TS 35 4 347
1858 NA NA 09:00:00 TS 35.35 -74.64 98 79 _____________P -1 35.35 -74.64 TS 35 3 346
1858 NA NA 12:00:00 TS 35.50 -74.70 79 64 _____________O -1 35.50 -74.70 TS 35 4 340
1858 NA NA 15:00:00 TS 35.69 -74.80 64 53 _____________P -1 35.69 -74.80 TS 35 4 338
1858 NA NA 18:00:00 TS 35.90 -74.90 55 54 _____________O -1 35.90 -74.90 TS 35 4 343
1858 NA NA 21:00:00 TS 36.10 -74.96 54 54 _____________P -1 36.10 -74.96 TS 35 4 349
1858 NA NA 1858-08-16 00:00:00 TS 36.30 -75.00 63 63 _____________O -1 36.30 -75.00 TS 35 4 349
1858 NA NA 03:00:00 TS 36.51 -75.05 63 63 _____________P -1 36.51 -75.05 TS 35 4 349
1858 NA NA 06:00:00 TS 36.70 -75.10 70 70 _____________O -1 36.70 -75.10 TS 35 4 349
1858 NA NA 09:00:00 TS 36.85 -75.14 74 62 _____________P -1 36.85 -75.14 TS 35 3 346
1858 NA NA 12:00:00 TS 37.00 -75.20 62 48 _____________O -1 37.00 -75.20 TS 35 4 334
1858 NA NA 15:00:00 TS 37.22 -75.36 41 20 _____________P -1 37.22 -75.36 TS 35 5 329
1858 NA NA 18:00:00 TS 37.40 -75.50 20 8 _____________O -1 37.40 -75.50 TS 35 3 324
1858 NA NA 21:00:00 TS 37.47 -75.60 8 8 _____________P -1 37.47 -75.60 TS 35 1 0
1858 NA NA 1858-08-17 00:00:00 TS 37.50 -75.50 17 17 _____________O -1 37.50 -75.50 TS 35 4 79
1858 NA NA 03:00:00 TS 37.55 -75.11 48 41 _____________P -1 37.55 -75.11 TS 35 8 83
1858 NA NA 06:00:00 TS 37.60 -74.50 89 89 _____________O -1 37.60 -74.50 TS 35 11 85
1858 NA NA 09:00:00 TS 37.65 -73.78 131 131 _____________P -1 37.65 -73.78 TS 37 12 85
1858 NA NA 12:00:00 TS 37.70 -73.00 195 195 _____________O -1 37.70 -73.00 TS 40 12 85
1858 NA NA 15:00:00 TS 37.75 -72.29 253 250 _____________P -1 37.75 -72.29 TS 40 11 85
1858 NA NA 18:00:00 TS 37.80 -71.60 300 300 _____________O -1 37.80 -71.60 TS 40 11 85
1858 NA NA 21:00:00 TS 37.85 -70.90 349 343 _____________P -1 37.85 -70.90 TS 42 11 85
1858 NA NA 1858-08-18 00:00:00 TS 37.90 -70.20 382 382 _____________O -1 37.90 -70.20 TS 45 11 84
1858 NA NA 03:00:00 TS 37.96 -69.49 402 402 _____________P -1 37.96 -69.49 TS 45 11 85
1858 NA NA 06:00:00 TS 38.00 -68.80 421 421 _____________O -1 38.00 -68.80 TS 45 10 89
1858 NA NA 09:00:00 TS 37.97 -68.18 439 439 _____________P -1 37.97 -68.18 TS 45 10 90
1858 NA NA 12:00:00 TS 38.00 -67.50 463 463 _____________O -1 38.00 -67.50 TS 45 12 79
1858 NA NA 15:00:00 TS 38.21 -66.63 484 481 _____________P -1 38.21 -66.63 TS 45 15 71
1858 NA NA 18:00:00 TS 38.50 -65.70 509 509 _____________O -1 38.50 -65.70 TS 45 15 69
1858 NA NA 21:00:00 TS 38.75 -64.84 535 510 _____________P -1 38.75 -64.84 TS 45 14 69
1858 NA NA 1858-08-19 00:00:00 TS 39.00 -64.00 512 501 _____________O -1 39.00 -64.00 TS 45 14 69
1858 NA NA 03:00:00 TS 39.26 -63.16 498 498 _____________P -1 39.26 -63.16 TS 45 14 69
1858 NA NA 06:00:00 TS 39.50 -62.30 509 509 _____________O -1 39.50 -62.30 TS 45 14 74
1858 NA NA 09:00:00 TS 39.64 -61.40 541 537 _____________P -1 39.64 -61.40 TS 45 14 74
1858 NA NA 12:00:00 TS 39.90 -60.50 560 536 _____________O -1 39.90 -60.50 TS 45 16 59
1858 NA NA 15:00:00 TS 40.48 -59.61 533 481 _____________P -1 40.48 -59.61 TS 45 19 46
1858 NA NA 18:00:00 TS 41.20 -58.70 485 457 _____________O -1 41.20 -58.70 TS 45 20 46
1858 NA NA 21:00:00 TS 41.85 -57.75 466 443 _____________P -1 41.85 -57.75 TS 45 19 47
1858 NA NA 1858-08-20 00:00:00 TS 42.50 -56.80 448 411 _____________O -1 42.50 -56.80 TS 45 19 46
1858 NA NA 03:00:00 TS 43.16 -55.89 400 329 _____________P -1 43.16 -55.89 TS 45 18 45
1858 NA NA 06:00:00 ET 43.80 -55.00 329 248 _____________O -1 43.80 -55.00 EX 45 18 46
1858 NA NA 09:00:00 ET 44.41 -54.11 247 177 _____________P -1 44.41 -54.11 EX 45 18 47
1858 NA NA 12:00:00 ET 45.00 -53.20 177 _____________O -1 45.00 -53.20 EX 45 994 17 47